sensor_id;sensor_type;location;lat;lon;timestamp;pressure;altitude;pressure_sealevel;temperature;humidity
69411;BME280;56604;48.652;9.194;2023-01-25T00:01:29;97750.75;;;1.01;100.00
69411;BME280;56604;48.652;9.194;2023-01-25T00:03:54;97751.72;;;1.00;100.00
69411;BME280;56604;48.652;9.194;2023-01-25T00:06:20;97743.97;;;1.08;100.00
69411;BME280;56604;48.652;9.194;2023-01-25T00:08:49;97746.25;;;1.03;100.00
69411;BME280;56604;48.652;9.194;2023-01-25T00:11:15;97736.50;;;1.05;100.00
69411;BME280;56604;48.652;9.194;2023-01-25T00:13:44;97729.13;;;1.10;100.00
69411;BME280;56604;48.652;9.194;2023-01-25T00:16:10;97731.41;;;1.13;100.00
69411;BME280;56604;48.652;9.194;2023-01-25T00:18:35;97731.56;;;1.11;100.00
69411;BME280;56604;48.652;9.194;2023-01-25T00:21:15;97731.09;;;1.16;100.00
69411;BME280;56604;48.652;9.194;2023-01-25T00:23:40;97721.41;;;1.18;100.00
69411;BME280;56604;48.652;9.194;2023-01-25T00:26:06;97733.31;;;1.11;100.00
69411;BME280;56604;48.652;9.194;2023-01-25T00:28:31;97725.91;;;1.16;100.00
69411;BME280;56604;48.652;9.194;2023-01-25T00:31:00;97730.22;;;1.07;100.00
69411;BME280;56604;48.652;9.194;2023-01-25T00:33:43;97730.59;;;1.12;100.00
69411;BME280;56604;48.652;9.194;2023-01-25T00:39:04;97734.66;;;1.15;100.00
69411;BME280;56604;48.652;9.194;2023-01-25T00:41:31;97729.16;;;1.18;99.88
69411;BME280;56604;48.652;9.194;2023-01-25T00:43:56;97731.09;;;1.16;99.88
69411;BME280;56604;48.652;9.194;2023-01-25T00:46:22;97724.00;;;1.18;99.70
69411;BME280;56604;48.652;9.194;2023-01-25T00:48:47;97722.69;;;1.14;99.96
69411;BME280;56604;48.652;9.194;2023-01-25T00:51:13;97714.75;;;1.16;100.00
69411;BME280;56604;48.652;9.194;2023-01-25T00:53:39;97715.25;;;1.19;99.79
69411;BME280;56604;48.652;9.194;2023-01-25T00:56:05;97710.06;;;1.19;99.83
69411;BME280;56604;48.652;9.194;2023-01-25T00:58:30;97714.25;;;1.12;99.79
69411;BME280;56604;48.652;9.194;2023-01-25T01:00:56;97713.63;;;1.18;99.76
69411;BME280;56604;48.652;9.194;2023-01-25T01:03:22;97711.50;;;1.13;99.31
69411;BME280;56604;48.652;9.194;2023-01-25T01:05:47;97716.16;;;1.10;99.41
69411;BME280;56604;48.652;9.194;2023-01-25T01:08:13;97710.38;;;1.16;99.78
69411;BME280;56604;48.652;9.194;2023-01-25T01:10:39;97703.72;;;1.13;99.82
69411;BME280;56604;48.652;9.194;2023-01-25T01:13:05;97718.94;;;1.08;99.36
69411;BME280;56604;48.652;9.194;2023-01-25T01:15:30;97711.19;;;1.17;99.64
69411;BME280;56604;48.652;9.194;2023-01-25T01:17:59;97702.91;;;1.13;99.85
69411;BME280;56604;48.652;9.194;2023-01-25T01:20:24;97705.50;;;1.13;99.58
69411;BME280;56604;48.652;9.194;2023-01-25T01:22:51;97706.84;;;1.17;99.48
69411;BME280;56604;48.652;9.194;2023-01-25T01:25:16;97710.06;;;1.19;98.94
69411;BME280;56604;48.652;9.194;2023-01-25T01:27:41;97711.53;;;1.22;99.07
69411;BME280;56604;48.652;9.194;2023-01-25T01:30:07;97703.13;;;1.20;99.18
69411;BME280;56604;48.652;9.194;2023-01-25T01:32:33;97710.72;;;1.21;98.96
69411;BME280;56604;48.652;9.194;2023-01-25T01:34:58;97708.94;;;1.22;99.08
69411;BME280;56604;48.652;9.194;2023-01-25T01:37:23;97710.06;;;1.19;98.97
69411;BME280;56604;48.652;9.194;2023-01-25T01:39:50;97707.34;;;1.21;98.89
69411;BME280;56604;48.652;9.194;2023-01-25T01:42:16;97712.34;;;1.22;98.20
69411;BME280;56604;48.652;9.194;2023-01-25T01:44:49;97712.00;;;1.17;98.65
69411;BME280;56604;48.652;9.194;2023-01-25T01:49:51;97707.47;;;1.19;98.88
69411;BME280;56604;48.652;9.194;2023-01-25T01:52:21;97705.06;;;1.18;98.53
69411;BME280;56604;48.652;9.194;2023-01-25T01:54:53;97708.75;;;1.15;98.88
69411;BME280;56604;48.652;9.194;2023-01-25T01:57:25;97708.59;;;1.17;98.78
69411;BME280;56604;48.652;9.194;2023-01-25T02:00:07;97712.97;;;1.16;98.64
69411;BME280;56604;48.652;9.194;2023-01-25T02:02:34;97716.34;;;1.17;99.10
69411;BME280;56604;48.652;9.194;2023-01-25T02:05:03;97712.59;;;1.11;98.87
69411;BME280;56604;48.652;9.194;2023-01-25T02:07:31;97710.69;;;1.13;98.86
69411;BME280;56604;48.652;9.194;2023-01-25T02:09:58;97714.91;;;1.14;98.58
69411;BME280;56604;48.652;9.194;2023-01-25T02:12:25;97706.97;;;1.16;98.59
69411;BME280;56604;48.652;9.194;2023-01-25T02:14:52;97712.81;;;1.18;98.77
69411;BME280;56604;48.652;9.194;2023-01-25T02:17:33;97709.22;;;1.10;98.24
69411;BME280;56604;48.652;9.194;2023-01-25T02:25:55;97704.69;;;1.12;99.08
69411;BME280;56604;48.652;9.194;2023-01-25T02:28:26;97698.84;;;1.10;99.02
69411;BME280;56604;48.652;9.194;2023-01-25T02:30:54;97700.63;;;1.10;98.64
69411;BME280;56604;48.652;9.194;2023-01-25T02:33:22;97699.00;;;1.09;98.79
69411;BME280;56604;48.652;9.194;2023-01-25T02:35:49;97691.75;;;1.12;99.07
69411;BME280;56604;48.652;9.194;2023-01-25T02:38:18;97704.69;;;1.12;98.87
69411;BME280;56604;48.652;9.194;2023-01-25T02:40:48;97690.94;;;1.12;98.71
69411;BME280;56604;48.652;9.194;2023-01-25T02:43:16;97689.97;;;1.13;98.59
69411;BME280;56604;48.652;9.194;2023-01-25T02:45:45;97707.41;;;1.11;98.61
69411;BME280;56604;48.652;9.194;2023-01-25T02:48:11;97683.97;;;1.12;98.66
69411;BME280;56604;48.652;9.194;2023-01-25T02:50:37;97688.66;;;1.09;98.89
69411;BME280;56604;48.652;9.194;2023-01-25T02:53:02;97684.47;;;1.16;98.76
69411;BME280;56604;48.652;9.194;2023-01-25T02:55:27;97679.97;;;1.18;98.63
69411;BME280;56604;48.652;9.194;2023-01-25T02:57:53;97687.88;;;1.17;98.97
69411;BME280;56604;48.652;9.194;2023-01-25T03:00:18;97683.53;;;1.17;98.87
69411;BME280;56604;48.652;9.194;2023-01-25T03:02:43;97684.16;;;1.19;98.34
69411;BME280;56604;48.652;9.194;2023-01-25T03:05:09;97685.13;;;1.18;98.40
69411;BME280;56604;48.652;9.194;2023-01-25T03:07:34;97679.28;;;1.16;98.69
69411;BME280;56604;48.652;9.194;2023-01-25T03:09:59;97677.00;;;1.13;98.52
69411;BME280;56604;48.652;9.194;2023-01-25T03:12:24;97676.50;;;1.09;98.73
69411;BME280;56604;48.652;9.194;2023-01-25T03:14:50;97681.34;;;1.04;98.72
69411;BME280;56604;48.652;9.194;2023-01-25T03:17:15;97670.66;;;1.07;98.91
69411;BME280;56604;48.652;9.194;2023-01-25T03:19:40;97673.81;;;1.19;98.65
69411;BME280;56604;48.652;9.194;2023-01-25T03:22:05;97667.94;;;1.09;98.60
69411;BME280;56604;48.652;9.194;2023-01-25T03:24:31;97662.16;;;1.15;98.78
69411;BME280;56604;48.652;9.194;2023-01-25T03:26:56;97656.31;;;1.13;98.75
69411;BME280;56604;48.652;9.194;2023-01-25T03:29:43;97650.44;;;1.11;99.00
69411;BME280;56604;48.652;9.194;2023-01-25T03:32:08;97648.84;;;1.10;98.98
69411;BME280;56604;48.652;9.194;2023-01-25T03:34:34;97646.41;;;1.08;99.04
69411;BME280;56604;48.652;9.194;2023-01-25T03:36:59;97645.94;;;1.13;99.12
69411;BME280;56604;48.652;9.194;2023-01-25T03:39:24;97635.22;;;1.08;99.02
69411;BME280;56604;48.652;9.194;2023-01-25T03:41:49;97634.72;;;1.04;98.93
69411;BME280;56604;48.652;9.194;2023-01-25T03:44:15;97633.91;;;1.04;98.92
69411;BME280;56604;48.652;9.194;2023-01-25T03:46:40;97635.53;;;1.05;98.95
69411;BME280;56604;48.652;9.194;2023-01-25T03:49:07;97640.09;;;1.11;98.51
69411;BME280;56604;48.652;9.194;2023-01-25T03:51:33;97638.13;;;1.05;98.61
69411;BME280;56604;48.652;9.194;2023-01-25T03:53:58;97634.72;;;1.04;98.87
69411;BME280;56604;48.652;9.194;2023-01-25T03:56:23;97636.50;;;1.04;98.98
69411;BME280;56604;48.652;9.194;2023-01-25T03:58:49;97629.09;;;1.09;98.81
69411;BME280;56604;48.652;9.194;2023-01-25T04:01:14;97630.66;;;1.02;99.00
69411;BME280;56604;48.652;9.194;2023-01-25T04:03:39;97630.34;;;1.05;98.43
69411;BME280;56604;48.652;9.194;2023-01-25T04:06:05;97627.47;;;1.08;98.76
69411;BME280;56604;48.652;9.194;2023-01-25T04:08:31;97633.00;;;1.13;98.53
69411;BME280;56604;48.652;9.194;2023-01-25T04:11:00;97634.91;;;1.11;98.59
69411;BME280;56604;48.652;9.194;2023-01-25T04:13:26;97627.81;;;1.13;98.96
69411;BME280;56604;48.652;9.194;2023-01-25T04:15:52;97623.44;;;1.13;98.83
69411;BME280;56604;48.652;9.194;2023-01-25T04:18:17;97634.31;;;1.17;98.32
69411;BME280;56604;48.652;9.194;2023-01-25T04:20:43;97632.69;;;1.16;98.51
69411;BME280;56604;48.652;9.194;2023-01-25T04:23:09;97634.63;;;1.14;98.58
69411;BME280;56604;48.652;9.194;2023-01-25T04:25:35;97627.50;;;1.16;98.42
69411;BME280;56604;48.652;9.194;2023-01-25T04:28:01;97636.69;;;1.10;98.28
69411;BME280;56604;48.652;9.194;2023-01-25T04:30:26;97631.19;;;1.05;98.61
69411;BME280;56604;48.652;9.194;2023-01-25T04:32:52;97634.59;;;1.06;98.81
69411;BME280;56604;48.652;9.194;2023-01-25T04:35:18;97632.00;;;1.06;98.42
69411;BME280;56604;48.652;9.194;2023-01-25T04:37:55;97638.34;;;1.11;98.79
69411;BME280;56604;48.652;9.194;2023-01-25T04:40:20;97636.38;;;1.05;98.26
69411;BME280;56604;48.652;9.194;2023-01-25T04:42:46;97631.84;;;1.07;98.27
69411;BME280;56604;48.652;9.194;2023-01-25T04:45:11;97624.28;;;1.14;98.25
69411;BME280;56604;48.652;9.194;2023-01-25T04:47:36;97628.63;;;1.13;98.13
69411;BME280;56604;48.652;9.194;2023-01-25T04:50:01;97625.56;;;1.18;97.87
69411;BME280;56604;48.652;9.194;2023-01-25T04:52:27;97622.00;;;1.19;97.74
69411;BME280;56604;48.652;9.194;2023-01-25T04:54:52;97626.81;;;1.06;97.68
69411;BME280;56604;48.652;9.194;2023-01-25T04:57:17;97617.09;;;1.08;97.48
69411;BME280;56604;48.652;9.194;2023-01-25T04:59:43;97620.53;;;1.17;97.61
69411;BME280;56604;48.652;9.194;2023-01-25T05:02:08;97622.31;;;1.16;97.65
69411;BME280;56604;48.652;9.194;2023-01-25T05:04:33;97610.84;;;1.19;97.54
69411;BME280;56604;48.652;9.194;2023-01-25T05:06:59;97617.66;;;1.20;97.35
69411;BME280;56604;48.652;9.194;2023-01-25T05:09:24;97615.84;;;1.12;96.90
69411;BME280;56604;48.652;9.194;2023-01-25T05:11:49;97616.28;;;1.07;97.27
69411;BME280;56604;48.652;9.194;2023-01-25T05:14:14;97624.22;;;1.06;97.95
69411;BME280;56604;48.652;9.194;2023-01-25T05:16:40;97618.25;;;1.13;98.02
69411;BME280;56604;48.652;9.194;2023-01-25T05:19:06;97621.03;;;1.12;97.55
69411;BME280;56604;48.652;9.194;2023-01-25T05:21:32;97614.50;;;1.08;97.87
69411;BME280;56604;48.652;9.194;2023-01-25T05:24:16;97606.44;;;1.11;97.47
69411;BME280;56604;48.652;9.194;2023-01-25T05:26:41;97605.78;;;1.09;97.11
69411;BME280;56604;48.652;9.194;2023-01-25T05:29:36;97607.72;;;1.07;97.35
69411;BME280;56604;48.652;9.194;2023-01-25T05:32:13;97599.28;;;1.05;96.99
69411;BME280;56604;48.652;9.194;2023-01-25T05:34:39;97602.91;;;1.12;97.39
69411;BME280;56604;48.652;9.194;2023-01-25T05:37:06;97606.44;;;1.11;96.73
69411;BME280;56604;48.652;9.194;2023-01-25T05:39:32;97598.22;;;1.16;97.11
69411;BME280;56604;48.652;9.194;2023-01-25T05:41:57;97601.59;;;1.16;97.14
69411;BME280;56604;48.652;9.194;2023-01-25T05:44:22;97596.91;;;1.11;96.69
69411;BME280;56604;48.652;9.194;2023-01-25T05:46:48;97602.53;;;1.07;96.57
69411;BME280;56604;48.652;9.194;2023-01-25T05:49:14;97606.44;;;1.11;96.81
69411;BME280;56604;48.652;9.194;2023-01-25T05:51:40;97602.84;;;1.04;96.41
69411;BME280;56604;48.652;9.194;2023-01-25T05:54:06;97601.91;;;1.13;96.08
69411;BME280;56604;48.652;9.194;2023-01-25T05:56:32;97602.19;;;1.02;95.25
69411;BME280;56604;48.652;9.194;2023-01-25T05:58:59;97594.09;;;1.05;94.42
69411;BME280;56604;48.652;9.194;2023-01-25T06:01:25;97604.50;;;1.13;94.85
69411;BME280;56604;48.652;9.194;2023-01-25T06:03:51;97609.03;;;1.11;94.61
69411;BME280;56604;48.652;9.194;2023-01-25T06:06:17;97597.72;;;1.12;94.34
69411;BME280;56604;48.652;9.194;2023-01-25T06:08:43;97601.44;;;1.09;94.26
69411;BME280;56604;48.652;9.194;2023-01-25T06:11:16;97603.25;;;1.17;94.33
69411;BME280;56604;48.652;9.194;2023-01-25T06:13:43;97599.31;;;1.13;94.26
69411;BME280;56604;48.652;9.194;2023-01-25T06:16:08;97606.28;;;1.12;94.70
69411;BME280;56604;48.652;9.194;2023-01-25T06:18:34;97610.34;;;1.15;94.55
69411;BME280;56604;48.652;9.194;2023-01-25T06:21:01;97600.31;;;1.12;94.30
69411;BME280;56604;48.652;9.194;2023-01-25T06:23:27;97601.59;;;1.16;93.99
69411;BME280;56604;48.652;9.194;2023-01-25T06:25:57;97595.44;;;1.09;94.11
69411;BME280;56604;48.652;9.194;2023-01-25T06:28:22;97602.22;;;1.10;93.23
69411;BME280;56604;48.652;9.194;2023-01-25T06:30:48;97597.06;;;1.10;93.38
69411;BME280;56604;48.652;9.194;2023-01-25T06:33:13;97594.09;;;1.05;93.50
69411;BME280;56604;48.652;9.194;2023-01-25T06:35:38;97596.72;;;1.13;92.71
69411;BME280;56604;48.652;9.194;2023-01-25T06:38:04;97589.63;;;1.15;92.59
69411;BME280;56604;48.652;9.194;2023-01-25T06:40:30;97593.19;;;1.14;93.63
69411;BME280;56604;48.652;9.194;2023-01-25T06:43:04;97592.88;;;1.17;93.28
69411;BME280;56604;48.652;9.194;2023-01-25T06:45:30;97597.75;;;1.20;92.76
69411;BME280;56604;48.652;9.194;2023-01-25T06:47:55;97595.31;;;1.19;93.17
69411;BME280;56604;48.652;9.194;2023-01-25T06:50:20;97594.19;;;1.21;93.02
69411;BME280;56604;48.652;9.194;2023-01-25T06:52:53;97591.78;;;1.20;92.71
69411;BME280;56604;48.652;9.194;2023-01-25T06:55:19;97593.34;;;1.12;92.02
69411;BME280;56604;48.652;9.194;2023-01-25T06:57:45;97587.72;;;1.17;91.49
69411;BME280;56604;48.652;9.194;2023-01-25T07:00:11;97588.63;;;1.08;91.61
69411;BME280;56604;48.652;9.194;2023-01-25T07:02:36;97581.81;;;1.07;91.29
69411;BME280;56604;48.652;9.194;2023-01-25T07:05:02;97580.22;;;1.06;90.36
69411;BME280;56604;48.652;9.194;2023-01-25T07:07:27;97573.91;;;1.08;89.77
69411;BME280;56604;48.652;9.194;2023-01-25T07:09:53;97579.06;;;1.00;89.46
69411;BME280;56604;48.652;9.194;2023-01-25T07:12:18;97576.16;;;1.03;90.00
69411;BME280;56604;48.652;9.194;2023-01-25T07:14:44;97566.75;;;1.02;89.64
69411;BME280;56604;48.652;9.194;2023-01-25T07:17:11;97567.59;;;1.03;89.45
69411;BME280;56604;48.652;9.194;2023-01-25T07:19:37;97573.75;;;1.10;89.04
69411;BME280;56604;48.652;9.194;2023-01-25T07:22:03;97569.66;;;0.99;89.70
69411;BME280;56604;48.652;9.194;2023-01-25T07:24:28;97572.44;;;1.06;88.83
69411;BME280;56604;48.652;9.194;2023-01-25T07:26:54;97566.28;;;1.07;88.78
69411;BME280;56604;48.652;9.194;2023-01-25T07:29:19;97557.22;;;1.11;88.90
69411;BME280;56604;48.652;9.194;2023-01-25T07:31:44;97564.06;;;1.12;88.54
69411;BME280;56604;48.652;9.194;2023-01-25T07:34:10;97560.47;;;1.13;88.99
69411;BME280;56604;48.652;9.194;2023-01-25T07:36:37;97550.44;;;1.10;88.15
69411;BME280;56604;48.652;9.194;2023-01-25T07:39:03;97564.72;;;1.14;89.08
69411;BME280;56604;48.652;9.194;2023-01-25T07:41:28;97563.88;;;1.05;89.19
69411;BME280;56604;48.652;9.194;2023-01-25T07:43:54;97562.13;;;1.14;89.14
69411;BME280;56604;48.652;9.194;2023-01-25T07:46:20;97559.34;;;1.07;88.70
69411;BME280;56604;48.652;9.194;2023-01-25T07:48:51;97554.81;;;1.09;89.67
69411;BME280;56604;48.652;9.194;2023-01-25T07:51:18;97559.84;;;1.19;89.06
69411;BME280;56604;48.652;9.194;2023-01-25T07:54:00;97561.75;;;1.01;89.55
69411;BME280;56604;48.652;9.194;2023-01-25T07:56:35;97558.56;;;1.15;88.98
69411;BME280;56604;48.652;9.194;2023-01-25T07:59:03;97549.16;;;1.06;89.83
69411;BME280;56604;48.652;9.194;2023-01-25T08:01:29;97552.88;;;1.11;89.58
69411;BME280;56604;48.652;9.194;2023-01-25T08:03:58;97552.06;;;1.11;89.17
69411;BME280;56604;48.652;9.194;2023-01-25T08:06:26;97551.94;;;1.21;89.31
69411;BME280;56604;48.652;9.194;2023-01-25T08:08:56;97552.69;;;1.05;89.01
69411;BME280;56604;48.652;9.194;2023-01-25T08:11:24;97562.72;;;1.08;89.38
69411;BME280;56604;48.652;9.194;2023-01-25T08:13:50;97559.19;;;1.09;89.99
69411;BME280;56604;48.652;9.194;2023-01-25T08:16:21;97556.75;;;1.07;89.82
69411;BME280;56604;48.652;9.194;2023-01-25T08:18:49;97560.47;;;1.13;89.17
69411;BME280;56604;48.652;9.194;2023-01-25T08:21:14;97566.53;;;0.87;89.11
69411;BME280;56604;48.652;9.194;2023-01-25T08:23:40;97567.09;;;1.07;88.73
69411;BME280;56604;48.652;9.194;2023-01-25T08:26:07;97565.00;;;1.03;89.76
69411;BME280;56604;48.652;9.194;2023-01-25T08:28:33;97561.88;;;0.99;89.06
69411;BME280;56604;48.652;9.194;2023-01-25T08:31:14;97564.16;;;1.02;89.82
69411;BME280;56604;48.652;9.194;2023-01-25T08:33:40;97569.91;;;1.22;88.79
69411;BME280;56604;48.652;9.194;2023-01-25T08:36:06;97557.59;;;1.24;88.17
69411;BME280;56604;48.652;9.194;2023-01-25T08:38:34;97550.50;;;1.26;88.29
69411;BME280;56604;48.652;9.194;2023-01-25T08:41:17;97557.94;;;1.21;87.56
69411;BME280;56604;48.652;9.194;2023-01-25T08:43:44;97556.00;;;1.23;88.00
69411;BME280;56604;48.652;9.194;2023-01-25T08:46:10;97547.56;;;1.21;87.97
69411;BME280;56604;48.652;9.194;2023-01-25T08:48:36;97551.16;;;1.37;88.12
69411;BME280;56604;48.652;9.194;2023-01-25T08:51:02;97547.13;;;1.34;87.57
69411;BME280;56604;48.652;9.194;2023-01-25T08:53:30;97544.84;;;1.23;86.95
69411;BME280;56604;48.652;9.194;2023-01-25T08:56:02;97538.53;;;1.25;87.00
69411;BME280;56604;48.652;9.194;2023-01-25T08:58:27;97536.22;;;1.14;87.53
69411;BME280;56604;48.652;9.194;2023-01-25T09:00:53;97531.94;;;0.97;88.49
69411;BME280;56604;48.652;9.194;2023-01-25T09:03:19;97533.00;;;1.20;88.29
69411;BME280;56604;48.652;9.194;2023-01-25T09:05:44;97532.81;;;1.05;88.81
69411;BME280;56604;48.652;9.194;2023-01-25T09:08:09;97530.09;;;1.23;89.04
69411;BME280;56604;48.652;9.194;2023-01-25T09:10:35;97525.59;;;1.25;88.16
69411;BME280;56604;48.652;9.194;2023-01-25T09:13:00;97522.66;;;1.28;88.57
69411;BME280;56604;48.652;9.194;2023-01-25T09:15:28;97516.38;;;1.31;88.43
69411;BME280;56604;48.652;9.194;2023-01-25T09:17:55;97515.81;;;1.11;88.61
69411;BME280;56604;48.652;9.194;2023-01-25T09:20:22;97516.50;;;1.21;88.70
69411;BME280;56604;48.652;9.194;2023-01-25T09:22:47;97518.09;;;1.14;88.60
69411;BME280;56604;48.652;9.194;2023-01-25T09:25:13;97523.09;;;1.16;89.02
69411;BME280;56604;48.652;9.194;2023-01-25T09:27:38;97533.13;;;1.10;89.04
69411;BME280;56604;48.652;9.194;2023-01-25T09:30:06;97532.94;;;1.04;89.35
69411;BME280;56604;48.652;9.194;2023-01-25T09:32:32;97528.22;;;0.99;89.80
69411;BME280;56604;48.652;9.194;2023-01-25T09:34:57;97531.00;;;0.98;90.21
69411;BME280;56604;48.652;9.194;2023-01-25T09:37:22;97526.94;;;0.95;90.20
69411;BME280;56604;48.652;9.194;2023-01-25T09:39:48;97526.44;;;0.92;89.74
69411;BME280;56604;48.652;9.194;2023-01-25T09:42:40;97522.25;;;0.99;89.65
69411;BME280;56604;48.652;9.194;2023-01-25T09:50:24;97522.25;;;0.99;89.49
69411;BME280;56604;48.652;9.194;2023-01-25T09:55:41;97521.25;;;0.92;90.28
69411;BME280;56604;48.652;9.194;2023-01-25T09:58:13;97514.44;;;0.90;90.33
69411;BME280;56604;48.652;9.194;2023-01-25T10:00:44;97522.88;;;0.93;90.63
69411;BME280;56604;48.652;9.194;2023-01-25T10:05:52;97517.91;;;1.07;90.12
69411;BME280;56604;48.652;9.194;2023-01-25T10:11:00;97510.28;;;0.98;90.46
69411;BME280;56604;48.652;9.194;2023-01-25T10:13:29;97517.34;;;0.87;89.99
69411;BME280;56604;48.652;9.194;2023-01-25T10:16:02;97514.13;;;0.94;89.78
69411;BME280;56604;48.652;9.194;2023-01-25T10:21:33;97511.22;;;0.88;90.42
69411;BME280;56604;48.652;9.194;2023-01-25T10:29:37;97509.50;;;1.05;89.88
69411;BME280;56604;48.652;9.194;2023-01-25T10:32:16;97499.28;;;1.04;90.08
69411;BME280;56604;48.652;9.194;2023-01-25T10:34:48;97496.88;;;1.10;90.06
69411;BME280;56604;48.652;9.194;2023-01-25T10:37:27;97492.22;;;1.30;89.54
69411;BME280;56604;48.652;9.194;2023-01-25T10:40:02;97487.97;;;1.13;90.10
69411;BME280;56604;48.652;9.194;2023-01-25T10:42:31;97482.81;;;1.21;89.76
69411;BME280;56604;48.652;9.194;2023-01-25T10:44:57;97485.25;;;1.23;89.59
69411;BME280;56604;48.652;9.194;2023-01-25T10:47:26;97475.38;;;1.18;89.47
69411;BME280;56604;48.652;9.194;2023-01-25T10:49:56;97470.66;;;1.05;89.66
69411;BME280;56604;48.652;9.194;2023-01-25T10:52:23;97471.78;;;1.03;89.73
69411;BME280;56604;48.652;9.194;2023-01-25T10:57:34;97461.41;;;1.11;89.92
69411;BME280;56604;48.652;9.194;2023-01-25T11:00:04;97464.66;;;1.05;89.91
69411;BME280;56604;48.652;9.194;2023-01-25T11:05:23;97459.47;;;1.05;90.38
69411;BME280;56604;48.652;9.194;2023-01-25T11:07:48;97460.31;;;1.05;90.24
69411;BME280;56604;48.652;9.194;2023-01-25T11:15:44;97458.19;;;1.09;90.67
69411;BME280;56604;48.652;9.194;2023-01-25T11:18:13;97452.69;;;1.04;90.55
69411;BME280;56604;48.652;9.194;2023-01-25T11:20:40;97455.28;;;1.04;90.35
69411;BME280;56604;48.652;9.194;2023-01-25T11:23:23;97452.38;;;1.15;90.41
69411;BME280;56604;48.652;9.194;2023-01-25T11:25:49;97453.47;;;0.96;90.54
69411;BME280;56604;48.652;9.194;2023-01-25T11:28:21;97452.34;;;0.99;90.93
69411;BME280;56604;48.652;9.194;2023-01-25T11:30:48;97446.69;;;1.03;90.43
69411;BME280;56604;48.652;9.194;2023-01-25T11:33:16;97437.16;;;1.04;90.19
69411;BME280;56604;48.652;9.194;2023-01-25T11:36:07;97433.28;;;1.00;89.74
69411;BME280;56604;48.652;9.194;2023-01-25T11:38:34;97434.50;;;0.87;90.52
69411;BME280;56604;48.652;9.194;2023-01-25T11:42:02;97431.31;;;1.02;90.47
69411;BME280;56604;48.652;9.194;2023-01-25T11:49:49;97414.81;;;1.11;89.94
69411;BME280;56604;48.652;9.194;2023-01-25T11:55:30;97407.41;;;1.32;88.82
69411;BME280;56604;48.652;9.194;2023-01-25T11:58:19;97405.78;;;1.15;88.77
69411;BME280;56604;48.652;9.194;2023-01-25T12:00:57;97390.56;;;1.20;89.19
69411;BME280;56604;48.652;9.194;2023-01-25T12:06:13;97386.34;;;1.19;89.12
69411;BME280;56604;48.652;9.194;2023-01-25T12:08:46;97376.31;;;1.16;89.40
69411;BME280;56604;48.652;9.194;2023-01-25T12:22:44;97361.41;;;1.02;89.56
69411;BME280;56604;48.652;9.194;2023-01-25T12:25:27;97346.22;;;1.15;89.75
69411;BME280;56604;48.652;9.194;2023-01-25T12:28:53;97334.53;;;1.11;89.36
69411;BME280;56604;48.652;9.194;2023-01-25T12:33:52;97321.63;;;1.03;88.83
69411;BME280;56604;48.652;9.194;2023-01-25T12:36:30;97308.03;;;1.01;89.33
69411;BME280;56604;48.652;9.194;2023-01-25T12:39:03;97301.38;;;1.06;89.50
69411;BME280;56604;48.652;9.194;2023-01-25T12:41:39;97305.75;;;1.06;90.30
69411;BME280;56604;48.652;9.194;2023-01-25T12:44:53;97303.31;;;1.12;88.83
69411;BME280;56604;48.652;9.194;2023-01-25T12:47:27;97293.13;;;0.95;89.46
69411;BME280;56604;48.652;9.194;2023-01-25T12:50:02;97289.41;;;0.89;90.31
69411;BME280;56604;48.652;9.194;2023-01-25T12:52:34;97301.53;;;1.13;89.39
69411;BME280;56604;48.652;9.194;2023-01-25T12:55:20;97292.50;;;1.09;89.71
69411;BME280;56604;48.652;9.194;2023-01-25T12:57:58;97291.66;;;1.17;89.50
69411;BME280;56604;48.652;9.194;2023-01-25T13:00:50;97285.19;;;1.12;88.77
69411;BME280;56604;48.652;9.194;2023-01-25T13:06:08;97274.03;;;1.12;88.94
69411;BME280;56604;48.652;9.194;2023-01-25T13:08:42;97272.41;;;1.11;88.72
69411;BME280;56604;48.652;9.194;2023-01-25T13:11:23;97262.38;;;1.08;89.71
69411;BME280;56604;48.652;9.194;2023-01-25T13:13:49;97274.03;;;0.96;89.65
69411;BME280;56604;48.652;9.194;2023-01-25T13:18:52;97257.06;;;0.93;89.81
69411;BME280;56604;48.652;9.194;2023-01-25T13:21:37;97254.28;;;1.19;89.59
69411;BME280;56604;48.652;9.194;2023-01-25T13:24:12;97251.69;;;1.19;89.13
69411;BME280;56604;48.652;9.194;2023-01-25T13:29:06;97241.38;;;0.78;90.82
69411;BME280;56604;48.652;9.194;2023-01-25T13:31:48;97235.84;;;1.14;90.29
69411;BME280;56604;48.652;9.194;2023-01-25T13:37:01;97229.84;;;1.13;89.58
69411;BME280;56604;48.652;9.194;2023-01-25T13:44:34;97229.56;;;1.00;88.76
69411;BME280;56604;48.652;9.194;2023-01-25T13:47:02;97231.00;;;0.95;88.86
69411;BME280;56604;48.652;9.194;2023-01-25T13:52:16;97219.34;;;1.07;90.05
69411;BME280;56604;48.652;9.194;2023-01-25T13:54:43;97225.63;;;1.21;89.53
69411;BME280;56604;48.652;9.194;2023-01-25T13:57:12;97227.72;;;1.25;89.09
69411;BME280;56604;48.652;9.194;2023-01-25T13:59:37;97220.25;;;1.30;88.27
69411;BME280;56604;48.652;9.194;2023-01-25T14:02:17;97219.66;;;1.04;88.72
69411;BME280;56604;48.652;9.194;2023-01-25T14:04:45;97209.63;;;1.17;88.70
69411;BME280;56604;48.652;9.194;2023-01-25T14:07:15;97210.91;;;1.13;88.94
69411;BME280;56604;48.652;9.194;2023-01-25T14:09:42;97212.22;;;1.09;89.83
69411;BME280;56604;48.652;9.194;2023-01-25T14:12:09;97210.56;;;1.24;89.23
69411;BME280;56604;48.652;9.194;2023-01-25T14:14:36;97207.19;;;1.16;89.55
69411;BME280;56604;48.652;9.194;2023-01-25T14:19:30;97198.28;;;1.10;89.83
69411;BME280;56604;48.652;9.194;2023-01-25T14:25:16;97201.09;;;0.84;89.84
69411;BME280;56604;48.652;9.194;2023-01-25T14:27:56;97201.41;;;0.89;90.24
69411;BME280;56604;48.652;9.194;2023-01-25T14:30:32;97204.16;;;0.71;89.33
69411;BME280;56604;48.652;9.194;2023-01-25T14:33:00;97202.69;;;0.77;90.91
69411;BME280;56604;48.652;9.194;2023-01-25T14:37:56;97207.06;;;0.93;89.66
69411;BME280;56604;48.652;9.194;2023-01-25T14:40:24;97207.25;;;0.66;89.97
69411;BME280;56604;48.652;9.194;2023-01-25T14:42:51;97208.38;;;0.56;91.51
69411;BME280;56604;48.652;9.194;2023-01-25T14:45:17;97211.28;;;0.44;92.32
69411;BME280;56604;48.652;9.194;2023-01-25T14:47:43;97210.97;;;0.48;92.68
69411;BME280;56604;48.652;9.194;2023-01-25T14:52:53;97205.13;;;0.78;91.40
69411;BME280;56604;48.652;9.194;2023-01-25T14:55:19;97202.22;;;0.57;91.89
69411;BME280;56604;48.652;9.194;2023-01-25T14:57:44;97204.47;;;0.76;91.25